Time,TemperatureF,DewpointF,PressureIn,WindDirection,WindDirectionDegrees,WindSpeedMPH,WindSpeedGustMPH,Humidity,HourlyPrecipIn,Conditions,Clouds,dailyrainin,SoftwareType,DateUTC
2015-05-06 00:01:00,53.1,49.3,30.22,SE,132,1.2,2.3,87,0.00,CLR,,0.00,WeatherDisplay:10.37,2015-05-06 04:01:00,
2015-05-06 00:06:00,53.0,49.5,30.22,SE,132,0.0,0.0,88,0.00,CLR,,0.00,WeatherDisplay:10.37,2015-05-06 04:06:00,
2015-05-06 00:11:00,52.9,49.4,30.22,SE,132,0.5,2.3,88,0.00,CLR,,0.00,WeatherDisplay:10.37,2015-05-06 04:11:00,
2015-05-06 00:16:00,52.8,49.3,30.23,SE,133,0.4,1.2,88,0.00,CLR,,0.00,WeatherDisplay:10.37,2015-05-06 04:16:00,
2015-05-06 00:21:00,52.8,49.3,30.23,SE,132,1.9,3.5,88,0.00,CLR,,0.00,WeatherDisplay:10.37,2015-05-06 04:21:00,
2015-05-06 00:26:00,52.8,49.3,30.22,SE,132,1.8,3.5,88,0.00,CLR,,0.00,WeatherDisplay:10.37,2015-05-06 04:26:00,
2015-05-06 00:31:00,52.7,49.5,30.22,SE,132,1.1,2.3,89,0.00,CLR,,0.00,WeatherDisplay:10.37,2015-05-06 04:31:00,
2015-05-06 00:36:00,52.6,49.4,30.22,SE,132,1.2,2.3,89,0.00,CLR,,0.00,WeatherDisplay:10.37,2015-05-06 04:36:00,
2015-05-06 00:41:00,52.5,49.4,30.22,SE,132,0.1,1.2,89,0.00,CLR,,0.00,WeatherDisplay:10.37,2015-05-06 04:41:00,
2015-05-06 00:46:00,52.3,48.9,30.22,SE,132,0.0,0.0,88,0.00,CLR,,0.00,WeatherDisplay:10.37,2015-05-06 04:46:00,
2015-05-06 00:51:00,52.1,48.7,30.21,SE,132,0.0,0.0,88,0.00,CLR,,0.00,WeatherDisplay:10.37,2015-05-06 04:51:00,
2015-05-06 00:56:00,51.9,48.8,30.22,SE,132,0.0,0.0,89,0.00,CLR,,0.00,WeatherDisplay:10.37,2015-05-06 04:56:00,
2015-05-06 01:01:00,51.7,48.6,30.22,SE,132,0.0,0.0,89,0.00,CLR,,0.00,WeatherDisplay:10.37,2015-05-06 05:01:00,
2015-05-06 01:06:00,51.5,48.4,30.21,SE,132,0.0,0.0,89,0.00,CLR,,0.00,WeatherDisplay:10.37,2015-05-06 05:06:00,
2015-05-06 01:11:00,51.3,48.2,30.21,SE,132,0.0,0.0,89,0.00,CLR,,0.00,WeatherDisplay:10.37,2015-05-06 05:11:00,
2015-05-06 01:16:00,51.0,48.2,30.21,SE,132,0.0,0.0,90,0.00,CLR,,0.00,WeatherDisplay:10.37,2015-05-06 05:16:00,
2015-05-06 01:21:00,50.8,48.0,30.22,SE,132,0.0,0.0,90,0.00,CLR,,0.00,WeatherDisplay:10.37,2015-05-06 05:21:00,
2015-05-06 01:26:00,50.6,47.8,30.21,SE,132,0.0,0.0,90,0.00,CLR,,0.00,WeatherDisplay:10.37,2015-05-06 05:26:00,
2015-05-06 01:31:00,50.5,47.7,30.21,SE,132,0.0,0.0,90,0.00,CLR,,0.00,WeatherDisplay:10.37,2015-05-06 05:31:00,
2015-05-06 01:36:00,50.2,47.4,30.21,SE,132,0.0,0.0,90,0.00,CLR,,0.00,WeatherDisplay:10.37,2015-05-06 05:36:00,
2015-05-06 01:41:00,50.0,47.2,30.21,SE,132,0.0,0.0,90,0.00,CLR,,0.00,WeatherDisplay:10.37,2015-05-06 05:41:00,
2015-05-06 01:46:00,49.8,47.3,30.21,SE,132,0.0,0.0,91,0.00,CLR,,0.00,WeatherDisplay:10.37,2015-05-06 05:46:00,
2015-05-06 01:51:00,49.7,47.2,30.21,SE,132,0.0,0.0,91,0.00,CLR,,0.00,WeatherDisplay:10.37,2015-05-06 05:51:00,
2015-05-06 01:56:00,49.5,47.0,30.21,SE,132,0.0,0.0,91,0.00,CLR,,0.00,WeatherDisplay:10.37,2015-05-06 05:56:00,
2015-05-06 02:01:00,49.3,46.8,30.21,SE,132,0.0,0.0,91,0.00,CLR,,0.00,WeatherDisplay:10.37,2015-05-06 06:01:00,
2015-05-06 02:06:00,49.0,46.5,30.21,SE,132,0.0,0.0,91,0.00,CLR,,0.00,WeatherDisplay:10.37,2015-05-06 06:06:00,
2015-05-06 02:11:00,48.7,46.5,30.20,SE,132,0.0,0.0,92,0.00,CLR,,0.00,WeatherDisplay:10.37,2015-05-06 06:11:00,
2015-05-06 02:16:00,48.6,46.4,30.20,SE,132,0.0,0.0,92,0.00,CLR,,0.00,WeatherDisplay:10.37,2015-05-06 06:16:00,
2015-05-06 02:21:00,48.5,46.3,30.21,SE,132,0.0,0.0,92,0.00,CLR,,0.00,WeatherDisplay:10.37,2015-05-06 06:21:00,
2015-05-06 02:26:00,48.3,46.1,30.20,SE,132,0.0,0.0,92,0.00,CLR,,0.00,WeatherDisplay:10.37,2015-05-06 06:26:00,
2015-05-06 02:31:00,48.2,46.0,30.20,SE,132,1.3,2.3,92,0.00,CLR,,0.00,WeatherDisplay:10.37,2015-05-06 06:31:00,
2015-05-06 02:36:00,48.1,46.2,30.20,SE,132,1.0,1.2,93,0.00,CLR,,0.00,WeatherDisplay:10.37,2015-05-06 06:36:00,
2015-05-06 02:41:00,48.1,46.2,30.20,SE,132,0.0,1.2,93,0.00,CLR,,0.00,WeatherDisplay:10.37,2015-05-06 06:41:00,
2015-05-06 02:46:00,48.1,46.2,30.20,SE,132,2.1,3.5,93,0.00,CLR,,0.00,WeatherDisplay:10.37,2015-05-06 06:46:00,
2015-05-06 02:51:00,47.9,46.0,30.20,SE,132,1.3,2.3,93,0.00,CLR,,0.00,WeatherDisplay:10.37,2015-05-06 06:51:00,
2015-05-06 02:56:00,47.9,46.0,30.20,SE,132,0.2,1.2,93,0.00,CLR,,0.00,WeatherDisplay:10.37,2015-05-06 06:56:00,
2015-05-06 03:01:00,47.9,46.0,30.20,SE,132,0.0,0.0,93,0.00,CLR,,0.00,WeatherDisplay:10.37,2015-05-06 07:01:00,
2015-05-06 03:06:00,48.1,46.5,30.20,SE,132,0.0,0.0,94,0.00,CLR,,0.00,WeatherDisplay:10.37,2015-05-06 07:06:00,
2015-05-06 03:11:00,48.2,46.6,30.20,SE,132,0.2,2.3,94,0.00,CLR,,0.00,WeatherDisplay:10.37,2015-05-06 07:11:00,
2015-05-06 03:16:00,48.0,46.1,30.20,SE,132,0.9,1.2,93,0.00,CLR,,0.00,WeatherDisplay:10.37,2015-05-06 07:16:00,
2015-05-06 03:21:00,47.7,45.8,30.20,SE,132,1.4,2.3,93,0.00,CLR,,0.00,WeatherDisplay:10.37,2015-05-06 07:21:00,
2015-05-06 03:26:00,47.7,46.1,30.20,SE,132,0.8,3.5,94,0.00,CLR,,0.00,WeatherDisplay:10.37,2015-05-06 07:26:00,
2015-05-06 03:31:00,47.8,46.2,30.20,SE,132,0.2,2.3,94,0.00,CLR,,0.00,WeatherDisplay:10.37,2015-05-06 07:31:00,
2015-05-06 03:36:00,48.0,46.4,30.20,SE,132,1.2,1.2,94,0.00,CLR,,0.00,WeatherDisplay:10.37,2015-05-06 07:36:00,
2015-05-06 03:41:00,48.1,46.5,30.20,SE,132,0.9,1.2,94,0.00,CLR,,0.00,WeatherDisplay:10.37,2015-05-06 07:41:00,
2015-05-06 03:46:00,48.1,46.5,30.20,SE,132,0.8,2.3,94,0.00,CLR,,0.00,WeatherDisplay:10.37,2015-05-06 07:46:00,
2015-05-06 03:51:00,48.1,46.5,30.20,SE,132,1.5,2.3,94,0.00,CLR,,0.00,WeatherDisplay:10.37,2015-05-06 07:51:00,
2015-05-06 03:56:00,48.1,46.5,30.20,SE,132,1.3,3.5,94,0.00,CLR,,0.00,WeatherDisplay:10.37,2015-05-06 07:56:00,
2015-05-06 04:01:00,48.2,46.6,30.20,SE,132,1.9,3.5,94,0.00,CLR,,0.00,WeatherDisplay:10.37,2015-05-06 08:01:00,
2015-05-06 04:06:00,48.4,46.8,30.20,SE,132,0.9,3.5,94,0.00,CLR,,0.00,WeatherDisplay:10.37,2015-05-06 08:06:00,
2015-05-06 04:11:00,48.7,47.1,30.20,SE,132,1.7,2.3,94,0.00,CLR,,0.00,WeatherDisplay:10.37,2015-05-06 08:11:00,
2015-05-06 04:16:00,48.9,47.5,30.21,SE,132,2.5,4.6,95,0.00,CLR,,0.00,WeatherDisplay:10.37,2015-05-06 08:16:00,
2015-05-06 04:22:00,49.4,48.0,30.21,SE,132,2.6,4.6,95,0.00,CLR,,0.00,WeatherDisplay:10.37,2015-05-06 08:22:00,
2015-05-06 04:27:00,50.1,48.7,30.20,ESE,109,3.0,5.8,95,0.00,CLR,,0.00,WeatherDisplay:10.37,2015-05-06 08:27:00,
2015-05-06 04:32:00,50.8,49.4,30.20,East,88,4.1,5.8,95,0.00,CLR,,0.00,WeatherDisplay:10.37,2015-05-06 08:32:00,
2015-05-06 04:37:00,51.3,49.6,30.20,NE,46,3.7,5.8,94,0.00,CLR,,0.00,WeatherDisplay:10.37,2015-05-06 08:37:00,
2015-05-06 04:42:00,51.5,49.8,30.21,NNE,30,2.4,3.5,94,0.00,CLR,,0.00,WeatherDisplay:10.37,2015-05-06 08:42:00,
2015-05-06 04:47:00,51.8,49.8,30.21,NNE,30,2.3,3.5,93,0.00,CLR,,0.00,WeatherDisplay:10.37,2015-05-06 08:47:00,
2015-05-06 04:52:00,52.0,49.7,30.21,NNE,30,3.0,3.5,92,0.00,CLR,,0.00,WeatherDisplay:10.37,2015-05-06 08:52:00,
2015-05-06 04:57:00,52.1,49.8,30.21,NNE,30,3.4,4.6,92,0.00,CLR,,0.00,WeatherDisplay:10.37,2015-05-06 08:57:00,
2015-05-06 05:02:00,52.2,49.9,30.21,NNE,30,2.4,3.5,92,0.00,CLR,,0.00,WeatherDisplay:10.37,2015-05-06 09:02:00,
2015-05-06 05:07:00,52.2,49.9,30.21,NNE,30,3.2,4.6,92,0.00,CLR,,0.00,WeatherDisplay:10.37,2015-05-06 09:07:00,
2015-05-06 05:12:00,52.3,50.0,30.21,NNE,30,2.7,4.6,92,0.00,CLR,,0.00,WeatherDisplay:10.37,2015-05-06 09:12:00,
2015-05-06 05:17:00,52.3,49.8,30.21,NNE,30,4.0,5.8,91,0.00,CLR,,0.00,WeatherDisplay:10.37,2015-05-06 09:17:00,
2015-05-06 05:22:00,52.4,49.8,30.22,NNE,30,3.7,5.0,91,0.00,CLR,,0.00,WeatherDisplay:10.37,2015-05-06 09:22:00,
2015-05-06 05:27:00,52.4,49.8,30.22,NNE,30,4.0,8.1,91,0.00,CLR,,0.00,WeatherDisplay:10.37,2015-05-06 09:27:00,
2015-05-06 05:32:00,52.4,49.8,30.22,NNE,30,2.7,3.5,91,0.00,CLR,,0.00,WeatherDisplay:10.37,2015-05-06 09:32:00,
2015-05-06 05:37:00,52.6,50.0,30.22,NNE,30,3.7,5.8,91,0.00,CLR,,0.00,WeatherDisplay:10.37,2015-05-06 09:37:00,
2015-05-06 05:42:00,52.7,50.1,30.23,NNE,30,4.5,8.1,91,0.00,CLR,,0.00,WeatherDisplay:10.37,2015-05-06 09:42:00,
2015-05-06 05:47:00,52.7,50.1,30.23,NNE,30,4.1,5.8,91,0.00,CLR,,0.00,WeatherDisplay:10.37,2015-05-06 09:47:00,
2015-05-06 05:52:00,52.8,50.2,30.23,NNE,30,3.7,4.6,91,0.00,CLR,,0.00,WeatherDisplay:10.37,2015-05-06 09:52:00,
2015-05-06 05:57:00,52.9,50.0,30.23,NNE,28,4.4,5.8,90,0.00,CLR,,0.00,WeatherDisplay:10.37,2015-05-06 09:57:00,
2015-05-06 06:02:00,53.1,50.5,30.24,NNE,28,3.4,5.8,91,0.00,CLR,,0.00,WeatherDisplay:10.37,2015-05-06 10:02:00,
2015-05-06 06:07:00,53.3,50.7,30.24,NNE,28,3.6,4.6,91,0.00,CLR,,0.00,WeatherDisplay:10.37,2015-05-06 10:07:00,
2015-05-06 06:12:00,53.6,50.7,30.24,NNE,28,3.3,5.8,90,0.00,CLR,,0.00,WeatherDisplay:10.37,2015-05-06 10:12:00,
2015-05-06 06:17:00,54.0,51.1,30.24,NE,36,3.6,5.8,90,0.00,CLR,,0.00,WeatherDisplay:10.37,2015-05-06 10:17:00,
2015-05-06 06:22:00,54.2,51.0,30.24,NE,40,3.9,4.6,89,0.00,CLR,,0.00,WeatherDisplay:10.37,2015-05-06 10:22:00,
2015-05-06 06:27:00,54.4,51.2,30.24,NE,40,3.7,5.8,89,0.00,CLR,,0.00,WeatherDisplay:10.37,2015-05-06 10:27:00,
2015-05-06 06:32:00,54.6,51.4,30.25,NE,40,3.4,4.0,89,0.00,CLR,,0.00,WeatherDisplay:10.37,2015-05-06 10:32:00,
2015-05-06 06:37:00,54.9,51.7,30.25,NNE,29,3.0,5.8,89,0.00,CLR,,0.00,WeatherDisplay:10.37,2015-05-06 10:37:00,
2015-05-06 06:42:00,55.3,52.1,30.25,NNE,24,2.7,3.5,89,0.00,CLR,,0.00,WeatherDisplay:10.37,2015-05-06 10:42:00,
2015-05-06 06:47:00,55.5,51.7,30.25,NNE,24,3.4,5.8,87,0.00,CLR,,0.00,WeatherDisplay:10.37,2015-05-06 10:47:00,
2015-05-06 06:52:00,55.8,52.0,30.25,NNE,24,2.7,6.0,87,0.00,CLR,,0.00,WeatherDisplay:10.37,2015-05-06 10:52:00,
2015-05-06 06:57:00,56.0,52.2,30.26,NNE,24,2.3,5.8,87,0.00,CLR,,0.00,WeatherDisplay:10.37,2015-05-06 10:57:00,
2015-05-06 07:02:00,56.2,52.1,30.26,NNE,24,3.8,5.8,86,0.00,CLR,,0.00,WeatherDisplay:10.37,2015-05-06 11:02:00,
2015-05-06 07:07:00,56.4,52.3,30.26,NNE,25,4.9,5.8,86,0.00,CLR,,0.00,WeatherDisplay:10.37,2015-05-06 11:07:00,
2015-05-06 07:12:00,57.1,53.0,30.26,NNE,25,2.8,4.6,86,0.00,CLR,,0.00,WeatherDisplay:10.37,2015-05-06 11:12:00,
2015-05-06 07:17:00,57.7,52.9,30.26,NNE,25,4.5,4.6,84,0.00,CLR,,0.00,WeatherDisplay:10.37,2015-05-06 11:17:00,
2015-05-06 07:22:00,58.5,53.4,30.26,NNE,26,4.3,5.8,83,0.00,CLR,,0.00,WeatherDisplay:10.37,2015-05-06 11:22:00,
2015-05-06 07:27:00,59.5,53.7,30.27,NNE,29,4.6,8.0,81,0.00,CLR,,0.00,WeatherDisplay:10.37,2015-05-06 11:27:00,
2015-05-06 07:32:00,60.3,53.8,30.27,NE,36,3.7,5.0,79,0.00,CLR,,0.00,WeatherDisplay:10.37,2015-05-06 11:32:00,
2015-05-06 07:37:00,60.8,53.5,30.27,NE,40,2.5,4.6,77,0.00,CLR,,0.00,WeatherDisplay:10.37,2015-05-06 11:37:00,
2015-05-06 07:42:00,61.5,53.9,30.27,NE,38,2.0,3.5,76,0.00,CLR,,0.00,WeatherDisplay:10.37,2015-05-06 11:42:00,
2015-05-06 07:47:00,61.5,53.5,30.27,NE,39,2.8,3.5,75,0.00,CLR,,0.00,WeatherDisplay:10.37,2015-05-06 11:47:00,
2015-05-06 07:52:00,61.6,53.6,30.27,NE,39,5.0,6.9,75,0.00,CLR,,0.00,WeatherDisplay:10.37,2015-05-06 11:52:00,
2015-05-06 07:57:00,62.3,53.9,30.28,NE,39,2.9,3.5,74,0.00,CLR,,0.00,WeatherDisplay:10.37,2015-05-06 11:57:00,
2015-05-06 08:02:00,63.3,54.5,30.27,NE,39,3.6,5.8,73,0.00,CLR,,0.00,WeatherDisplay:10.37,2015-05-06 12:02:00,
2015-05-06 08:07:00,64.1,54.5,30.27,NE,39,4.6,4.6,71,0.00,CLR,,0.00,WeatherDisplay:10.37,2015-05-06 12:07:00,
2015-05-06 08:12:00,64.1,53.7,30.27,NE,41,4.0,5.8,69,0.00,CLR,,0.00,WeatherDisplay:10.37,2015-05-06 12:12:00,
2015-05-06 08:17:00,63.5,53.5,30.27,NNE,15,8.1,13.8,70,0.00,CLR,,0.00,WeatherDisplay:10.37,2015-05-06 12:17:00,
2015-05-06 08:22:00,63.0,53.1,30.27,NE,51,4.0,9.2,70,0.00,CLR,,0.00,WeatherDisplay:10.37,2015-05-06 12:22:00,
2015-05-06 08:27:00,62.8,51.7,30.27,ENE,62,9.7,15.0,67,0.00,CLR,,0.00,WeatherDisplay:10.37,2015-05-06 12:27:00,
2015-05-06 08:32:00,62.6,49.8,30.28,NE,45,6.5,11.5,63,0.00,CLR,,0.00,WeatherDisplay:10.37,2015-05-06 12:32:00,
2015-05-06 08:37:00,62.8,50.0,30.28,NE,36,5.2,9.2,63,0.00,CLR,,0.00,WeatherDisplay:10.37,2015-05-06 12:37:00,
2015-05-06 08:42:00,62.8,48.3,30.28,NE,39,10.4,12.7,59,0.00,CLR,,0.00,WeatherDisplay:10.37,2015-05-06 12:42:00,
2015-05-06 08:47:00,62.5,48.0,30.28,NE,42,5.5,10.4,59,0.00,CLR,,0.00,WeatherDisplay:10.37,2015-05-06 12:47:00,
2015-05-06 08:52:00,62.4,47.4,30.28,NE,45,7.6,11.5,58,0.00,CLR,,0.00,WeatherDisplay:10.37,2015-05-06 12:52:00,
2015-05-06 08:57:00,62.6,47.6,30.28,NE,46,4.0,7.0,58,0.00,CLR,,0.00,WeatherDisplay:10.37,2015-05-06 12:57:00,
2015-05-06 09:02:00,62.6,45.7,30.28,NE,36,4.0,9.2,54,0.00,CLR,,0.00,WeatherDisplay:10.37,2015-05-06 13:02:00,
2015-05-06 09:07:00,62.5,44.1,30.28,ENE,67,8.2,11.5,51,0.00,CLR,,0.00,WeatherDisplay:10.37,2015-05-06 13:07:00,
2015-05-06 09:12:00,62.0,41.5,30.28,NE,46,9.9,12.7,47,0.00,CLR,,0.00,WeatherDisplay:10.37,2015-05-06 13:12:00,
2015-05-06 09:17:00,61.5,40.5,30.28,ENE,57,8.2,12.0,46,0.00,CLR,,0.00,WeatherDisplay:10.37,2015-05-06 13:17:00,
2015-05-06 09:22:00,61.3,39.8,30.28,NE,51,6.0,6.9,45,0.00,CLR,,0.00,WeatherDisplay:10.37,2015-05-06 13:22:00,
2015-05-06 09:27:00,61.2,40.2,30.28,NE,51,5.2,10.4,46,0.00,CLR,,0.00,WeatherDisplay:10.37,2015-05-06 13:27:00,
2015-05-06 09:32:00,61.1,41.2,30.29,NNE,32,5.3,10.0,48,0.00,CLR,,0.00,WeatherDisplay:10.37,2015-05-06 13:32:00,
2015-05-06 09:37:00,61.2,40.8,30.29,NE,35,6.5,11.5,47,0.00,CLR,,0.00,WeatherDisplay:10.37,2015-05-06 13:37:00,
2015-05-06 09:42:00,61.2,41.9,30.29,NNE,19,4.5,6.9,49,0.00,CLR,,0.00,WeatherDisplay:10.37,2015-05-06 13:42:00,
2015-05-06 09:47:00,61.2,42.9,30.29,NE,35,5.2,11.5,51,0.00,CLR,,0.00,WeatherDisplay:10.37,2015-05-06 13:47:00,
2015-05-06 09:52:00,60.7,42.5,30.28,NE,43,5.9,10.4,51,0.00,CLR,,0.00,WeatherDisplay:10.37,2015-05-06 13:52:00,
2015-05-06 09:57:00,60.4,41.7,30.29,NE,53,5.0,11.5,50,0.00,CLR,,0.00,WeatherDisplay:10.37,2015-05-06 13:57:00,
2015-05-06 10:02:00,60.4,42.2,30.29,NE,56,7.7,9.0,51,0.00,CLR,,0.00,WeatherDisplay:10.37,2015-05-06 14:02:00,
2015-05-06 10:08:00,60.4,41.7,30.29,NE,46,6.3,11.5,50,0.00,CLR,,0.00,WeatherDisplay:10.37,2015-05-06 14:08:00,
2015-05-06 10:13:00,60.5,41.8,30.29,NE,52,4.5,11.5,50,0.00,CLR,,0.00,WeatherDisplay:10.37,2015-05-06 14:13:00,
2015-05-06 10:18:00,60.6,41.8,30.29,NE,45,4.0,5.8,50,0.00,CLR,,0.00,WeatherDisplay:10.37,2015-05-06 14:18:00,
2015-05-06 10:23:00,60.9,42.6,30.29,NE,40,5.5,9.2,51,0.00,CLR,,0.00,WeatherDisplay:10.37,2015-05-06 14:23:00,
2015-05-06 10:28:00,61.2,41.3,30.29,NNE,26,4.2,6.0,48,0.00,CLR,,0.00,WeatherDisplay:10.37,2015-05-06 14:28:00,
2015-05-06 10:33:00,61.5,42.7,30.29,NNE,26,2.3,3.5,50,0.00,CLR,,0.00,WeatherDisplay:10.37,2015-05-06 14:33:00,
2015-05-06 10:38:00,61.8,41.3,30.30,NE,36,4.5,6.9,47,0.00,CLR,,0.00,WeatherDisplay:10.37,2015-05-06 14:38:00,
2015-05-06 10:43:00,61.9,40.9,30.30,NE,39,4.7,6.9,46,0.00,CLR,,0.00,WeatherDisplay:10.37,2015-05-06 14:43:00,
2015-05-06 10:48:00,62.0,40.4,30.30,NE,39,3.5,4.6,45,0.00,CLR,,0.00,WeatherDisplay:10.37,2015-05-06 14:48:00,
2015-05-06 10:53:00,62.4,40.2,30.30,NE,39,2.9,4.0,44,0.00,CLR,,0.00,WeatherDisplay:10.37,2015-05-06 14:53:00,
2015-05-06 10:58:00,62.7,39.9,30.29,NE,43,3.7,6.9,43,0.00,CLR,,0.00,WeatherDisplay:10.37,2015-05-06 14:58:00,
2015-05-06 11:03:00,62.9,37.5,30.29,ENE,63,7.3,10.4,39,0.00,CLR,,0.00,WeatherDisplay:10.37,2015-05-06 15:03:00,
2015-05-06 11:08:00,63.1,37.7,30.29,NE,52,7.5,11.5,39,0.00,CLR,,0.00,WeatherDisplay:10.37,2015-05-06 15:08:00,
2015-05-06 11:13:00,63.1,37.1,30.29,ENE,69,5.3,8.1,38,0.00,CLR,,0.00,WeatherDisplay:10.37,2015-05-06 15:13:00,
2015-05-06 11:18:00,63.3,37.2,30.29,NE,49,3.6,5.0,38,0.00,CLR,,0.00,WeatherDisplay:10.37,2015-05-06 15:18:00,
2015-05-06 11:23:00,63.6,37.5,30.29,NE,55,4.8,5.8,38,0.00,CLR,,0.00,WeatherDisplay:10.37,2015-05-06 15:23:00,
2015-05-06 11:28:00,63.7,38.3,30.29,NE,55,3.5,4.0,39,0.00,CLR,,0.00,WeatherDisplay:10.37,2015-05-06 15:28:00,
2015-05-06 11:33:00,63.7,37.6,30.29,NE,50,3.8,5.8,38,0.00,CLR,,0.00,WeatherDisplay:10.37,2015-05-06 15:33:00,
2015-05-06 11:38:00,63.9,38.4,30.29,NE,50,2.6,3.5,39,0.00,CLR,,0.00,WeatherDisplay:10.37,2015-05-06 15:38:00,
2015-05-06 11:43:00,64.0,37.2,30.29,NE,40,4.1,6.9,37,0.00,CLR,,0.00,WeatherDisplay:10.37,2015-05-06 15:43:00,
2015-05-06 11:48:00,64.3,37.5,30.29,ENE,67,5.9,9.2,37,0.00,CLR,,0.00,WeatherDisplay:10.37,2015-05-06 15:48:00,
2015-05-06 11:53:00,64.4,37.5,30.29,ENE,58,5.0,8.1,37,0.00,CLR,,0.00,WeatherDisplay:10.37,2015-05-06 15:53:00,
2015-05-06 11:58:00,64.5,36.9,30.28,NE,55,5.0,6.9,36,0.00,CLR,,0.00,WeatherDisplay:10.37,2015-05-06 15:58:00,
2015-05-06 12:03:00,64.5,37.6,30.28,NE,55,3.1,3.5,37,0.00,CLR,,0.00,WeatherDisplay:10.37,2015-05-06 16:03:00,
2015-05-06 12:08:00,64.7,37.1,30.28,ENE,63,4.2,9.0,36,0.00,CLR,,0.00,WeatherDisplay:10.37,2015-05-06 16:08:00,
2015-05-06 12:13:00,64.8,37.2,30.28,NE,55,6.4,10.4,36,0.00,CLR,,0.00,WeatherDisplay:10.37,2015-05-06 16:13:00,
2015-05-06 12:18:00,64.9,35.8,30.28,ENE,59,4.5,5.8,34,0.00,CLR,,0.00,WeatherDisplay:10.37,2015-05-06 16:18:00,
2015-05-06 12:23:00,65.1,36.8,30.27,East,80,2.8,4.6,35,0.00,CLR,,0.00,WeatherDisplay:10.37,2015-05-06 16:23:00,
2015-05-06 12:28:00,65.1,36.8,30.27,ENE,66,5.3,9.2,35,0.00,CLR,,0.00,WeatherDisplay:10.37,2015-05-06 16:28:00,
2015-05-06 12:33:00,65.0,37.4,30.28,ENE,69,3.3,5.8,36,0.00,CLR,,0.00,WeatherDisplay:10.37,2015-05-06 16:33:00,
2015-05-06 12:38:00,63.6,41.3,30.28,East,94,5.8,8.1,44,0.00,CLR,,0.00,WeatherDisplay:10.37,2015-05-06 16:38:00,
2015-05-06 12:43:00,62.7,41.6,30.27,East,95,2.5,5.8,46,0.00,CLR,,0.00,WeatherDisplay:10.37,2015-05-06 16:43:00,
2015-05-06 12:48:00,62.5,40.3,30.27,ESE,103,4.1,6.0,44,0.00,CLR,,0.00,WeatherDisplay:10.37,2015-05-06 16:48:00,
2015-05-06 12:53:00,62.2,43.8,30.27,ESE,103,3.1,3.5,51,0.00,CLR,,0.00,WeatherDisplay:10.37,2015-05-06 16:53:00,
2015-05-06 12:58:00,61.9,43.0,30.27,ESE,103,3.7,5.8,50,0.00,CLR,,0.00,WeatherDisplay:10.37,2015-05-06 16:58:00,
2015-05-06 13:03:00,62.0,43.7,30.27,ESE,104,4.2,7.0,51,0.00,CLR,,0.00,WeatherDisplay:10.37,2015-05-06 17:03:00,
2015-05-06 13:08:00,62.0,44.2,30.27,ESE,111,3.1,3.5,52,0.00,CLR,,0.00,WeatherDisplay:10.37,2015-05-06 17:08:00,
2015-05-06 13:13:00,62.1,43.2,30.26,ESE,111,4.5,6.9,50,0.00,CLR,,0.00,WeatherDisplay:10.37,2015-05-06 17:13:00,
2015-05-06 13:18:00,62.5,42.0,30.26,East,98,3.1,6.9,47,0.00,CLR,,0.00,WeatherDisplay:10.37,2015-05-06 17:18:00,
2015-05-06 13:23:00,62.7,42.7,30.26,ESE,121,3.9,7.0,48,0.00,CLR,,0.00,WeatherDisplay:10.37,2015-05-06 17:23:00,
2015-05-06 13:28:00,62.5,42.5,30.26,ESE,115,5.0,10.0,48,0.00,CLR,,0.00,WeatherDisplay:10.37,2015-05-06 17:28:00,
2015-05-06 13:33:00,61.8,39.6,30.26,ESE,105,6.5,9.2,44,0.00,CLR,,0.00,WeatherDisplay:10.37,2015-05-06 17:33:00,
2015-05-06 13:38:00,61.4,39.9,30.26,East,96,7.0,10.4,45,0.00,CLR,,0.00,WeatherDisplay:10.37,2015-05-06 17:38:00,
2015-05-06 13:43:00,61.3,39.8,30.26,East,98,4.4,8.1,45,0.00,CLR,,0.00,WeatherDisplay:10.37,2015-05-06 17:43:00,
2015-05-06 13:48:00,61.7,39.6,30.26,ESE,103,4.6,8.1,44,0.00,CLR,,0.00,WeatherDisplay:10.37,2015-05-06 17:48:00,
2015-05-06 13:53:00,61.5,41.1,30.26,ESE,109,7.7,11.5,47,0.00,CLR,,0.00,WeatherDisplay:10.37,2015-05-06 17:53:00,
2015-05-06 13:58:00,61.3,40.3,30.26,SE,129,7.6,10.4,46,0.00,CLR,,0.00,WeatherDisplay:10.37,2015-05-06 17:58:00,
2015-05-06 14:03:00,60.7,40.9,30.26,SE,130,6.5,9.2,48,0.00,CLR,,0.00,WeatherDisplay:10.37,2015-05-06 18:03:00,
2015-05-06 14:08:00,60.5,40.2,30.26,SE,136,7.3,10.4,47,0.00,CLR,,0.00,WeatherDisplay:10.37,2015-05-06 18:08:00,
2015-05-06 14:13:00,60.2,40.4,30.26,SE,128,6.4,11.5,48,0.00,CLR,,0.00,WeatherDisplay:10.37,2015-05-06 18:13:00,
2015-05-06 14:18:00,59.9,42.7,30.26,ESE,121,7.0,10.4,53,0.00,CLR,,0.00,WeatherDisplay:10.37,2015-05-06 18:18:00,
2015-05-06 14:23:00,59.5,41.9,30.25,ESE,119,6.0,10.4,52,0.00,CLR,,0.00,WeatherDisplay:10.37,2015-05-06 18:23:00,
2015-05-06 14:28:00,59.6,43.4,30.25,SE,136,4.6,9.2,55,0.00,CLR,,0.00,WeatherDisplay:10.37,2015-05-06 18:28:00,
2015-05-06 14:33:00,59.8,42.6,30.25,SE,132,5.4,8.1,53,0.00,CLR,,0.00,WeatherDisplay:10.37,2015-05-06 18:33:00,
2015-05-06 14:38:00,60.0,42.3,30.25,ESE,120,4.2,6.9,52,0.00,CLR,,0.00,WeatherDisplay:10.37,2015-05-06 18:38:00,
2015-05-06 14:43:00,60.3,42.6,30.25,ESE,109,2.6,5.8,52,0.00,CLR,,0.00,WeatherDisplay:10.37,2015-05-06 18:43:00,
2015-05-06 14:48:00,59.8,44.5,30.24,SE,128,8.8,11.5,57,0.00,CLR,,0.00,WeatherDisplay:10.37,2015-05-06 18:48:00,
2015-05-06 14:53:00,58.7,42.6,30.24,ESE,108,4.3,9.2,55,0.00,CLR,,0.00,WeatherDisplay:10.37,2015-05-06 18:53:00,
2015-05-06 14:58:00,58.6,42.9,30.25,ESE,102,2.9,10.4,56,0.00,CLR,,0.00,WeatherDisplay:10.37,2015-05-06 18:58:00,